Time;durP1;ratioP1;P1;durP2;ratioP2;P2;SDS_P1;SDS_P2;PMS_P1;PMS_P2;Temp;Humidity;BMP_temperature;BMP_pressure;BME280_temperature;BME280_humidity;BME280_pressure;Samples;Min_cycle;Max_cycle;Signal;HPM_P1;HPM_P2
2022/01/21 00:01:20;;;;;;;0.77;0.77;;;;;;;-1.33;98.71;101696.31;5071190;28;20167;-74
2022/01/21 00:03:46;;;;;;;2.00;1.23;;;;;;;-1.36;98.33;101698.59;5072985;28;20432;-75
2022/01/21 00:06:12;;;;;;;0.43;0.43;;;;;;;-1.37;98.35;101695.09;5072719;28;20490;-74
2022/01/21 00:08:40;;;;;;;0.57;0.50;;;;;;;-1.40;97.74;101695.50;5074297;28;20170;-75
2022/01/21 00:11:06;;;;;;;0.00;0.00;;;;;;;-1.44;97.97;101696.94;5074128;28;20202;-74
2022/01/21 00:13:34;;;;;;;1.70;0.57;;;;;;;-1.47;97.95;101693.81;5072707;28;20425;-74
2022/01/21 00:16:14;;;;;;;0.00;0.00;;;;;;;-1.48;97.94;101692.97;5073929;28;20170;-75
2022/01/21 00:18:43;;;;;;;4.43;0.77;;;;;;;-1.50;97.53;101685.16;5074217;28;20492;-75
2022/01/21 00:32:07;;;;;;;0.33;0.30;;;;;;;-1.54;97.87;101710.69;5073706;28;20486;-75
2022/01/21 00:34:33;;;;;;;0.10;0.10;;;;;;;-1.62;97.81;101707.34;5072478;28;20515;-74
2022/01/21 00:36:58;;;;;;;0.00;0.00;;;;;;;-1.67;97.98;101710.63;5072180;28;20504;-74
2022/01/21 00:39:28;;;;;;;0.03;0.03;;;;;;;-1.71;97.97;101708.56;5073315;28;20201;-75
2022/01/21 00:42:11;;;;;;;0.00;0.00;;;;;;;-1.74;98.07;101703.59;5074013;28;20167;-74
2022/01/21 00:44:37;;;;;;;0.40;0.40;;;;;;;-1.74;98.25;101700.91;5073449;28;20409;-75
2022/01/21 00:47:02;;;;;;;1.57;0.50;;;;;;;-1.73;98.73;101708.78;5073406;28;20413;-74
2022/01/21 00:49:28;;;;;;;1.60;0.50;;;;;;;-1.69;98.96;101698.47;5073383;28;20174;-74
2022/01/21 00:51:53;;;;;;;0.00;0.00;;;;;;;-1.68;98.83;101697.44;5073305;28;20198;-75
2022/01/21 00:54:19;;;;;;;0.20;0.20;;;;;;;-1.64;99.32;101701.38;5071969;28;20631;-75
2022/01/21 00:56:44;;;;;;;0.00;0.00;;;;;;;-1.64;99.41;101698.69;5071802;28;20619;-74
2022/01/21 00:59:10;;;;;;;0.00;0.00;;;;;;;-1.65;99.58;101694.38;5072012;28;20175;-74
2022/01/21 01:01:36;;;;;;;6.43;1.57;;;;;;;-1.65;99.67;101710.44;5071873;28;20179;-74
2022/01/21 01:04:01;;;;;;;0.00;0.00;;;;;;;-1.70;100.00;101694.16;5071830;28;20273;-77
2022/01/21 01:06:27;;;;;;;0.50;0.50;;;;;;;-1.68;100.00;101697.44;5071656;28;20206;-75
2022/01/21 01:08:53;;;;;;;0.00;0.00;;;;;;;-1.67;100.00;101709.81;5071774;28;20547;-75
2022/01/21 01:11:30;;;;;;;0.57;0.43;;;;;;;-1.66;100.00;101701.56;5073077;28;20688;-74
2022/01/21 01:22:07;;;;;;;0.73;0.73;;;;;;;-1.71;100.00;101692.50;5073209;28;20805;-74
2022/01/21 01:27:40;;;;;;;3.43;3.17;;;;;;;-1.66;100.00;101698.06;5072969;28;20396;-75
2022/01/21 01:30:08;;;;;;;0.40;0.37;;;;;;;-1.69;100.00;101704.66;5072614;28;20897;-75
2022/01/21 01:32:34;;;;;;;0.10;0.10;;;;;;;-1.67;100.00;101707.97;5072738;28;20470;-74
2022/01/21 01:34:59;;;;;;;0.40;0.40;;;;;;;-1.63;100.00;101708.38;5072437;28;20417;-75
2022/01/21 01:40:24;;;;;;;0.47;0.47;;;;;;;-1.60;100.00;101702.63;5072513;28;20224;-75
2022/01/21 01:43:21;;;;;;;22.00;2.57;;;;;;;-1.60;100.00;101694.56;5071181;28;20440;-74
2022/01/21 01:51:15;;;;;;;0.10;0.10;;;;;;;-1.55;100.00;101708.22;5072769;28;20571;-75
2022/01/21 01:53:50;;;;;;;0.00;0.00;;;;;;;-1.51;100.00;101699.56;5070975;28;20810;-74
2022/01/21 01:56:19;;;;;;;0.87;0.87;;;;;;;-1.51;100.00;101701.44;5070943;28;20424;-75
2022/01/21 01:58:45;;;;;;;0.53;0.53;;;;;;;-1.48;100.00;101705.56;5072050;28;20417;-74
2022/01/21 02:01:11;;;;;;;0.03;0.03;;;;;;;-1.45;100.00;101705.97;5072028;28;20405;-74
2022/01/21 02:03:36;;;;;;;2.90;2.70;;;;;;;-1.46;100.00;101707.00;5072067;28;20257;-75
2022/01/21 02:06:03;;;;;;;0.03;0.03;;;;;;;-1.46;100.00;101703.50;5072068;28;20173;-76
2022/01/21 02:08:29;;;;;;;5.70;0.87;;;;;;;-1.48;100.00;101708.22;5071767;28;20194;-76
2022/01/21 02:10:55;;;;;;;2.77;0.57;;;;;;;-1.50;100.00;101714.63;5071732;28;20468;-77
2022/01/21 02:13:24;;;;;;;0.43;0.43;;;;;;;-1.46;100.00;101709.69;5071870;28;20491;-74
2022/01/21 02:21:37;;;;;;;0.10;0.07;;;;;;;-1.52;100.00;101695.25;5072016;28;20450;-75
2022/01/21 02:24:07;;;;;;;0.00;0.00;;;;;;;-1.52;100.00;101694.41;5070321;28;20436;-74
2022/01/21 02:26:34;;;;;;;0.40;0.10;;;;;;;-1.51;100.00;101690.72;5070477;28;20422;-74
2022/01/21 02:29:01;;;;;;;0.30;0.30;;;;;;;-1.47;100.00;101697.31;5070294;28;20421;-74
2022/01/21 02:31:28;;;;;;;0.00;0.00;;;;;;;-1.50;100.00;101695.03;5071565;28;20464;-77
2022/01/21 02:33:53;;;;;;;2.63;0.27;;;;;;;-1.49;100.00;101696.69;5070415;28;20499;-75
2022/01/21 02:36:19;;;;;;;1.10;0.30;;;;;;;-1.51;100.00;101691.53;5071352;28;20521;-76
2022/01/21 02:38:44;;;;;;;3.37;1.27;;;;;;;-1.50;100.00;101684.31;5069902;28;20166;-75
2022/01/21 02:41:10;;;;;;;1.67;0.40;;;;;;;-1.55;100.00;101686.78;5071279;28;20491;-75
2022/01/21 02:43:35;;;;;;;0.57;0.57;;;;;;;-1.56;100.00;101685.13;5069917;28;20178;-75
2022/01/21 02:46:05;;;;;;;0.00;0.00;;;;;;;-1.56;100.00;101680.59;5069847;28;20261;-74
2022/01/21 02:48:35;;;;;;;0.83;0.70;;;;;;;-1.53;100.00;101684.72;5071133;28;20178;-76
2022/01/21 02:51:01;;;;;;;0.47;0.47;;;;;;;-1.52;100.00;101681.84;5069666;28;20821;-76
2022/01/21 02:56:05;;;;;;;0.13;0.13;;;;;;;-1.41;100.00;101671.56;5071314;28;20904;-79
2022/01/21 02:58:32;;;;;;;0.00;0.00;;;;;;;-1.40;100.00;101671.38;5071190;28;20480;-77
2022/01/21 03:00:57;;;;;;;5.73;1.03;;;;;;;-1.37;100.00;101673.66;5070983;28;20417;-77
2022/01/21 03:03:23;;;;;;;11.93;0.17;;;;;;;-1.31;100.00;101683.53;5069616;28;20513;-75
2022/01/21 03:05:48;;;;;;;0.00;0.00;;;;;;;-1.28;100.00;101682.34;5069584;28;20175;-75
2022/01/21 03:08:14;;;;;;;0.03;0.03;;;;;;;-1.24;100.00;101686.25;5071015;28;20186;-74
2022/01/21 03:10:39;;;;;;;0.80;0.63;;;;;;;-1.20;100.00;101696.38;5070964;28;20194;-74
2022/01/21 03:13:05;;;;;;;0.00;0.00;;;;;;;-1.16;100.00;101688.72;5070741;28;20170;-75
2022/01/21 03:15:30;;;;;;;1.83;1.73;;;;;;;-1.11;100.00;101704.22;5069376;28;20257;-74
2022/01/21 03:17:55;;;;;;;0.57;0.43;;;;;;;-1.09;100.00;101692.28;5069473;28;20261;-76
2022/01/21 03:20:21;;;;;;;0.10;0.10;;;;;;;-1.07;100.00;101700.94;5069484;28;20174;-75
2022/01/21 03:22:46;;;;;;;0.20;0.20;;;;;;;-1.08;100.00;101701.97;5069489;28;20174;-75
2022/01/21 03:25:11;;;;;;;8.60;0.87;;;;;;;-1.07;100.00;101700.94;5069235;28;20175;-75
2022/01/21 03:27:37;;;;;;;0.40;0.40;;;;;;;-1.07;100.00;101695.56;5069445;28;20173;-74
2022/01/21 03:30:05;;;;;;;0.93;0.73;;;;;;;-1.08;100.00;101698.47;5070733;28;20657;-74
2022/01/21 03:32:31;;;;;;;2.53;2.43;;;;;;;-1.10;100.00;101705.88;5069370;28;20213;-74
2022/01/21 03:34:56;;;;;;;1.00;0.50;;;;;;;-1.10;100.00;101709.38;5069257;28;20862;-76
2022/01/21 03:37:22;;;;;;;0.20;0.20;;;;;;;-1.07;100.00;101703.63;5075353;28;20175;-77
2022/01/21 03:39:47;;;;;;;0.33;0.07;;;;;;;-1.08;100.00;101709.19;5077265;28;20645;-77
2022/01/21 03:42:12;;;;;;;0.00;0.00;;;;;;;-1.11;100.00;101710.41;5077308;28;20202;-75
2022/01/21 03:44:38;;;;;;;0.17;0.17;;;;;;;-1.14;100.00;101707.31;5077098;28;20528;-74
2022/01/21 03:47:04;;;;;;;0.90;0.87;;;;;;;-1.15;100.00;101703.81;5075915;28;20178;-82
2022/01/21 03:49:36;;;;;;;1.77;1.20;;;;;;;-1.15;100.00;101711.03;5077135;28;20163;-76
2022/01/21 03:52:03;;;;;;;0.47;0.40;;;;;;;-1.14;100.00;101715.38;5077202;28;20225;-76
2022/01/21 03:54:28;;;;;;;0.10;0.03;;;;;;;-1.16;100.00;101712.03;5075682;28;20417;-75
2022/01/21 03:56:53;;;;;;;5.00;0.87;;;;;;;-1.18;100.00;101714.09;5076965;28;20423;-75
2022/01/21 03:59:19;;;;;;;0.63;0.63;;;;;;;-1.20;100.00;101715.13;5077081;28;20181;-74
2022/01/21 04:01:44;;;;;;;0.00;0.00;;;;;;;-1.21;100.00;101709.97;5077098;28;20279;-75
2022/01/21 04:04:10;;;;;;;8.93;0.93;;;;;;;-1.20;100.00;101708.94;5077016;28;20671;-76
2022/01/21 04:06:35;;;;;;;0.00;0.00;;;;;;;-1.16;100.00;101715.53;5075488;28;20543;-75
2022/01/21 04:09:00;;;;;;;0.00;0.00;;;;;;;-1.12;100.00;101718.66;5075780;28;20224;-76
2022/01/21 04:11:26;;;;;;;0.13;0.13;;;;;;;-1.09;100.00;101727.13;5076983;28;20567;-75
2022/01/21 04:13:53;;;;;;;0.43;0.43;;;;;;;-1.06;100.00;101734.75;5077055;28;20200;-75
2022/01/21 04:16:18;;;;;;;2.70;0.97;;;;;;;-1.02;100.00;101732.50;5076804;28;20266;-75
2022/01/21 04:18:44;;;;;;;0.30;0.30;;;;;;;-0.98;100.00;101728.41;5076969;28;20508;-74
2022/01/21 04:21:09;;;;;;;12.93;0.40;;;;;;;-0.91;100.00;101737.28;5075595;28;20232;-75
2022/01/21 04:23:34;;;;;;;0.03;0.03;;;;;;;-0.87;100.00;101745.72;5076772;28;20236;-77
2022/01/21 04:26:00;;;;;;;1.37;1.20;;;;;;;-0.79;100.00;101743.69;5076810;28;20166;-75
2022/01/21 04:28:25;;;;;;;0.20;0.20;;;;;;;-0.72;100.00;101736.50;5077049;28;20178;-79
2022/01/21 04:30:51;;;;;;;0.00;0.00;;;;;;;-0.70;100.00;101736.28;5075412;28;20202;-78
2022/01/21 04:33:16;;;;;;;0.00;0.00;;;;;;;-0.69;100.00;101735.25;5076796;28;20174;-75
2022/01/21 04:35:43;;;;;;;3.00;0.30;;;;;;;-0.65;100.00;101737.31;5075588;28;20202;-74
2022/01/21 04:38:11;;;;;;;0.33;0.17;;;;;;;-0.61;100.00;101735.84;5076526;28;20832;-74
2022/01/21 04:40:47;;;;;;;1.10;0.40;;;;;;;-0.56;100.00;101735.25;5076739;28;20224;-75
2022/01/21 04:48:41;;;;;;;0.37;0.37;;;;;;;-0.33;100.00;101729.47;5073554;28;20428;-75
2022/01/21 04:51:18;;;;;;;0.00;0.00;;;;;;;-0.31;100.00;101727.38;5072032;28;20960;-75
2022/01/21 04:53:46;;;;;;;16.13;1.60;;;;;;;-0.30;100.00;101729.03;5073263;28;20193;-76
2022/01/21 04:56:12;;;;;;;0.47;0.20;;;;;;;-0.34;100.00;101727.81;5073213;28;20959;-75
2022/01/21 04:58:38;;;;;;;0.30;0.30;;;;;;;-0.33;100.00;101734.81;5071936;28;20417;-77
2022/01/21 05:01:05;;;;;;;1.17;0.33;;;;;;;-0.37;100.00;101729.06;5073199;28;20178;-75
2022/01/21 05:03:33;;;;;;;0.73;0.10;;;;;;;-0.41;100.00;101730.50;5071797;28;20632;-75
2022/01/21 05:06:00;;;;;;;0.73;0.73;;;;;;;-0.43;100.00;101729.91;5071544;28;20437;-76
2022/01/21 05:08:31;;;;;;;0.63;0.30;;;;;;;-0.42;100.00;101728.88;5072936;28;20927;-75
2022/01/21 05:10:56;;;;;;;0.00;0.00;;;;;;;-0.43;100.00;101721.00;5072863;28;20490;-75
2022/01/21 05:13:25;;;;;;;1.27;0.30;;;;;;;-0.43;100.00;101721.00;5072830;28;20424;-76
2022/01/21 05:16:04;;;;;;;2.90;0.83;;;;;;;-0.45;100.00;101721.19;5072559;28;20189;-75
2022/01/21 05:18:30;;;;;;;0.03;0.00;;;;;;;-0.49;100.00;101717.28;5072746;28;20443;-75
2022/01/21 05:20:56;;;;;;;2.27;0.27;;;;;;;-0.47;100.00;101719.75;5071368;28;20424;-76
2022/01/21 05:23:22;;;;;;;4.30;0.63;;;;;;;-0.50;100.00;101721.00;5071416;28;20188;-75
2022/01/21 05:25:48;;;;;;;0.37;0.37;;;;;;;-0.49;100.00;101709.22;5072808;28;20416;-75
2022/01/21 05:28:13;;;;;;;2.60;0.57;;;;;;;-0.55;100.00;101695.81;5072910;28;20167;-75
2022/01/21 05:30:39;;;;;;;0.83;0.83;;;;;;;-0.57;100.00;101700.59;5071295;28;20246;-76
2022/01/21 05:33:04;;;;;;;15.97;0.67;;;;;;;-0.61;100.00;101698.28;5072380;28;20261;-75
2022/01/21 05:35:29;;;;;;;0.53;0.53;;;;;;;-0.59;100.00;101695.41;5069893;28;20179;-75
2022/01/21 05:37:55;;;;;;;0.03;0.03;;;;;;;-0.60;100.00;101702.63;5074365;28;20536;-73
2022/01/21 05:40:21;;;;;;;0.00;0.00;;;;;;;-0.63;100.00;101702.22;5080563;28;20571;-75
2022/01/21 05:42:46;;;;;;;0.73;0.20;;;;;;;-0.62;100.00;101699.31;5072187;28;20225;-77
2022/01/21 05:47:56;;;;;;;0.07;0.07;;;;;;;-0.53;100.00;101712.53;5072224;28;20602;-75
2022/01/21 05:50:22;;;;;;;0.10;0.10;;;;;;;-0.50;100.00;101706.75;5070730;28;20433;-73
2022/01/21 05:52:48;;;;;;;0.10;0.10;;;;;;;-0.46;100.00;101713.34;5072066;28;20181;-75
2022/01/21 05:55:15;;;;;;;0.73;0.73;;;;;;;-0.48;100.00;101712.75;5071992;28;20631;-75
2022/01/21 05:57:41;;;;;;;0.33;0.33;;;;;;;-0.51;100.00;101705.09;5071970;28;20413;-76
2022/01/21 06:00:08;;;;;;;0.33;0.33;;;;;;;-0.56;100.00;101711.09;5070393;28;20428;-74
2022/01/21 06:02:35;;;;;;;2.00;0.83;;;;;;;-0.52;100.00;101711.50;5070646;28;20421;-74
2022/01/21 06:05:00;;;;;;;0.10;0.10;;;;;;;-0.46;100.00;101716.88;5071747;28;20409;-75
2022/01/21 06:07:26;;;;;;;0.43;0.43;;;;;;;-0.38;100.00;101727.41;5071682;28;20462;-79
2022/01/21 06:09:51;;;;;;;1.30;0.50;;;;;;;-0.35;100.00;101710.06;5070406;28;20181;-76
2022/01/21 06:12:16;;;;;;;7.20;4.17;;;;;;;-0.32;100.00;101718.50;5070254;28;20648;-78
2022/01/21 06:14:42;;;;;;;0.77;0.20;;;;;;;-0.31;100.00;101717.47;5071494;28;20183;-76
2022/01/21 06:17:10;;;;;;;0.50;0.50;;;;;;;-0.29;100.00;101714.56;5072035;28;20163;-74
2022/01/21 06:19:36;;;;;;;0.10;0.10;;;;;;;-0.32;100.00;101706.94;5078649;28;20171;-74
2022/01/21 06:22:01;;;;;;;0.57;0.57;;;;;;;-0.26;100.00;101716.03;5077090;28;20428;-74
2022/01/21 06:24:27;;;;;;;1.13;0.43;;;;;;;-0.23;100.00;101702.19;5071517;28;20183;-74
2022/01/21 06:26:58;;;;;;;0.03;0.00;;;;;;;-0.24;100.00;101709.44;5071053;28;20202;-74
2022/01/21 06:29:23;;;;;;;3.80;1.07;;;;;;;-0.21;100.00;101713.56;5072010;28;20177;-74
2022/01/21 06:31:49;;;;;;;0.00;0.00;;;;;;;-0.14;100.00;101720.56;5070178;28;21051;-74
2022/01/21 06:34:14;;;;;;;0.10;0.10;;;;;;;-0.09;100.00;101726.13;5071467;28;20673;-74
2022/01/21 06:36:39;;;;;;;0.10;0.10;;;;;;;-0.05;100.00;101730.03;5070114;28;20548;-75
2022/01/21 06:39:05;;;;;;;8.27;0.30;;;;;;;-0.01;100.00;101725.91;5071270;28;20244;-75
2022/01/21 06:41:30;;;;;;;0.70;0.70;;;;;;;0.04;100.00;101737.91;5071237;28;20171;-74
2022/01/21 06:43:55;;;;;;;2.93;0.20;;;;;;;0.06;100.00;101735.81;5071275;28;20175;-74
2022/01/21 06:46:20;;;;;;;0.03;0.03;;;;;;;0.09;100.00;101744.28;5069971;28;20174;-74
2022/01/21 06:48:46;;;;;;;0.10;0.10;;;;;;;0.10;100.00;101745.94;5071235;28;20250;-75
2022/01/21 06:51:11;;;;;;;4.70;0.73;;;;;;;0.11;100.00;101747.56;5071080;28;20233;-74
2022/01/21 06:53:37;;;;;;;1.37;0.70;;;;;;;0.13;100.00;101750.88;5071108;28;20700;-74
2022/01/21 06:56:02;;;;;;;0.77;0.77;;;;;;;0.14;100.00;101754.38;5070783;28;20254;-74
2022/01/21 06:58:27;;;;;;;0.00;0.00;;;;;;;0.17;100.00;101762.06;5070959;28;20186;-74
2022/01/21 07:00:53;;;;;;;5.27;0.73;;;;;;;0.16;100.00;101752.34;5071057;28;20239;-74
2022/01/21 07:03:18;;;;;;;8.03;0.90;;;;;;;0.18;100.00;101750.25;5070957;28;20650;-74
2022/01/21 07:05:46;;;;;;;0.23;0.10;;;;;;;0.21;100.00;101749.84;5071172;28;20197;-74
2022/01/21 07:08:14;;;;;;;1.10;1.10;;;;;;;0.27;100.00;101755.19;5070747;28;20166;-75
2022/01/21 07:10:40;;;;;;;5.33;0.97;;;;;;;0.31;100.00;101760.16;5070329;28;20543;-74
2022/01/21 07:13:05;;;;;;;3.40;1.10;;;;;;;0.37;100.00;101752.06;5069300;28;20500;-74
2022/01/21 07:15:31;;;;;;;0.20;0.20;;;;;;;0.41;100.00;101755.16;5070591;28;20170;-73
2022/01/21 07:17:56;;;;;;;4.70;0.47;;;;;;;0.43;100.00;101769.19;5069470;28;20185;-74
2022/01/21 07:20:22;;;;;;;3.97;0.13;;;;;;;0.46;100.00;101769.63;5070778;28;20641;-77
2022/01/21 07:22:47;;;;;;;0.87;0.87;;;;;;;0.53;100.00;101775.78;5070570;28;20171;-74
2022/01/21 07:25:14;;;;;;;0.50;0.43;;;;;;;0.59;100.00;101780.34;5070620;28;20178;-73
2022/01/21 07:27:41;;;;;;;1.47;0.40;;;;;;;0.63;100.00;101782.59;5069265;28;20673;-74
2022/01/21 07:30:07;;;;;;;0.77;0.10;;;;;;;0.70;100.00;101781.50;5069341;28;20421;-74
2022/01/21 07:32:33;;;;;;;6.30;0.30;;;;;;;0.72;100.00;101784.00;5070515;28;20468;-74
2022/01/21 07:34:58;;;;;;;0.83;0.83;;;;;;;0.73;100.00;101799.94;5069192;28;20440;-74
2022/01/21 07:37:23;;;;;;;0.20;0.20;;;;;;;0.70;100.00;101794.97;5069151;28;20647;-74
2022/01/21 07:39:49;;;;;;;1.30;1.10;;;;;;;0.67;100.00;101799.94;5069235;28;20619;-74
2022/01/21 07:42:15;;;;;;;4.23;1.33;;;;;;;0.63;100.00;101796.88;5070452;28;20634;-74
2022/01/21 07:44:40;;;;;;;0.30;0.13;;;;;;;0.57;100.00;101797.69;5070465;28;20175;-74
2022/01/21 07:47:06;;;;;;;1.40;1.23;;;;;;;0.51;100.00;101788.63;5070461;28;20202;-74
2022/01/21 07:49:31;;;;;;;9.97;0.33;;;;;;;0.51;100.00;101796.69;5070472;28;20239;-74
2022/01/21 07:51:57;;;;;;;4.70;0.83;;;;;;;0.48;100.00;101791.75;5069058;28;20206;-74
2022/01/21 07:54:22;;;;;;;7.27;2.13;;;;;;;0.45;100.00;101797.53;5070335;28;20166;-74
2022/01/21 07:56:48;;;;;;;0.00;0.00;;;;;;;0.34;100.00;101781.22;5070547;28;20209;-73
2022/01/21 07:59:14;;;;;;;0.10;0.10;;;;;;;0.25;100.00;101784.13;5070484;28;20244;-74
2022/01/21 08:01:40;;;;;;;1.83;1.00;;;;;;;0.22;100.00;101789.09;5069108;28;20175;-74
2022/01/21 08:04:06;;;;;;;9.53;1.70;;;;;;;0.25;100.00;101788.69;5070358;28;20424;-74
2022/01/21 08:06:32;;;;;;;0.10;0.10;;;;;;;0.26;100.00;101777.72;5068769;28;20175;-74
2022/01/21 08:08:59;;;;;;;0.00;0.00;;;;;;;0.27;100.00;101789.28;5070211;28;20413;-75
2022/01/21 08:11:24;;;;;;;1.33;0.63;;;;;;;0.32;100.00;101786.00;5070092;28;20579;-73
2022/01/21 08:13:50;;;;;;;0.30;0.30;;;;;;;0.33;100.00;101775.03;5065300;28;20535;-74
2022/01/21 08:16:17;;;;;;;0.20;0.20;;;;;;;0.32;100.00;101768.00;5067935;28;20266;-73
2022/01/21 08:18:42;;;;;;;0.00;0.00;;;;;;;0.32;100.00;101775.25;5068794;28;20535;-73
2022/01/21 08:21:07;;;;;;;7.67;1.30;;;;;;;0.33;100.00;101779.59;5067358;28;21000;-76
2022/01/21 08:23:33;;;;;;;12.63;1.07;;;;;;;0.39;100.00;101784.94;5070850;28;20201;-75
2022/01/21 08:25:58;;;;;;;0.40;0.40;;;;;;;0.46;100.00;101790.31;5073503;28;20181;-75
2022/01/21 08:28:24;;;;;;;0.53;0.27;;;;;;;0.50;100.00;101780.78;5073859;28;20178;-74
2022/01/21 08:30:49;;;;;;;5.40;0.40;;;;;;;0.52;100.00;101766.06;5073578;28;20548;-74
2022/01/21 08:33:14;;;;;;;3.30;1.20;;;;;;;0.57;100.00;101790.44;5072472;28;20222;-75
2022/01/21 08:35:40;;;;;;;0.10;0.10;;;;;;;0.60;100.00;101786.53;5073198;28;20253;-74
2022/01/21 08:38:06;;;;;;;0.20;0.10;;;;;;;0.62;100.00;101789.84;5073401;28;20187;-74
2022/01/21 08:40:32;;;;;;;13.07;0.67;;;;;;;0.67;100.00;101799.94;5072170;28;20424;-74
2022/01/21 08:42:59;;;;;;;21.47;1.00;;;;;;;0.69;100.00;101777.19;5073547;28;20170;-74
2022/01/21 08:45:26;;;;;;;2.17;0.20;;;;;;;0.73;100.00;101772.22;5073182;28;20179;-74
2022/01/21 08:47:52;;;;;;;0.40;0.40;;;;;;;0.76;100.00;101777.16;5071997;28;20431;-74
2022/01/21 08:50:21;;;;;;;0.30;0.23;;;;;;;0.81;100.00;101801.56;5073768;28;20425;-75
2022/01/21 08:52:48;;;;;;;1.10;0.53;;;;;;;0.83;100.00;101791.41;5073874;28;20456;-77
2022/01/21 08:55:21;;;;;;;1.70;0.13;;;;;;;0.86;100.00;101783.72;5073006;28;20494;-74
2022/01/21 08:57:48;;;;;;;0.10;0.10;;;;;;;0.89;100.00;101798.63;5073186;28;20905;-75
2022/01/21 09:00:19;;;;;;;0.83;0.83;;;;;;;0.91;100.00;101796.53;5073375;28;20425;-76
2022/01/21 09:02:46;;;;;;;0.10;0.10;;;;;;;0.98;100.00;101804.56;5072908;28;20408;-73
2022/01/21 09:05:12;;;;;;;0.40;0.23;;;;;;;1.03;100.00;101808.28;5070219;28;20909;-74
2022/01/21 09:07:38;;;;;;;0.67;0.53;;;;;;;1.09;100.00;101823.56;5075551;28;20507;-75
2022/01/21 09:10:05;;;;;;;6.10;1.60;;;;;;;1.10;100.00;101821.69;5078219;28;20182;-71
2022/01/21 09:12:31;;;;;;;0.17;0.10;;;;;;;1.10;100.00;101810.94;5071204;28;20206;-74
2022/01/21 09:14:56;;;;;;;0.33;0.30;;;;;;;1.13;100.00;101827.47;5071116;28;20628;-74
2022/01/21 09:17:21;;;;;;;0.33;0.33;;;;;;;1.16;100.00;101832.44;5072417;28;20190;-72
2022/01/21 09:19:47;;;;;;;0.00;0.00;;;;;;;1.18;100.00;101824.97;5071502;28;20178;-73
2022/01/21 09:22:12;;;;;;;0.50;0.50;;;;;;;1.22;100.00;101833.44;5071590;28;20190;-73
2022/01/21 09:24:38;;;;;;;0.13;0.13;;;;;;;1.23;100.00;101843.16;5071328;28;20179;-72
2022/01/21 09:27:05;;;;;;;0.50;0.47;;;;;;;1.25;100.00;101832.19;5072588;28;20181;-72
2022/01/21 09:29:31;;;;;;;0.37;0.37;;;;;;;1.23;100.00;101837.78;5071379;28;20178;-73
2022/01/21 09:31:57;;;;;;;14.83;0.40;;;;;;;1.24;100.00;101830.53;5071076;28;20209;-73
2022/01/21 09:34:24;;;;;;;0.57;0.57;;;;;;;1.26;100.00;101844.59;5070472;28;20795;-73
2022/01/21 09:36:51;;;;;;;1.27;0.90;;;;;;;1.28;100.00;101834.44;5072292;28;20416;-73
2022/01/21 09:39:16;;;;;;;1.77;0.37;;;;;;;1.31;100.00;101834.03;5072107;28;20413;-72
2022/01/21 09:41:43;;;;;;;0.57;0.37;;;;;;;1.31;100.00;101836.72;5072254;28;20412;-77
2022/01/21 09:44:15;;;;;;;0.13;0.13;;;;;;;1.31;100.00;101834.84;5072093;28;20688;-74
2022/01/21 09:46:44;;;;;;;0.70;0.70;;;;;;;1.29;100.00;101833.41;5070356;28;20425;-75
2022/01/21 09:49:26;;;;;;;3.03;1.37;;;;;;;1.25;100.00;101824.94;5070562;28;21067;-73
2022/01/21 09:51:54;;;;;;;0.50;0.50;;;;;;;1.30;100.00;101837.75;5070293;28;20461;-73
2022/01/21 09:54:22;;;;;;;0.53;0.53;;;;;;;1.35;100.00;101835.25;5070660;28;20441;-72
2022/01/21 09:56:48;;;;;;;0.40;0.40;;;;;;;1.39;100.00;101839.97;5077940;28;20175;-73
2022/01/21 09:59:18;;;;;;;7.90;0.80;;;;;;;1.44;100.00;101834.75;5078611;28;20752;-73
2022/01/21 10:01:49;;;;;;;4.87;1.17;;;;;;;1.48;100.00;101833.28;5074284;28;20248;-72
2022/01/21 10:04:17;;;;;;;0.60;0.60;;;;;;;1.44;100.00;101837.44;5072099;28;20435;-72
2022/01/21 10:06:45;;;;;;;2.67;1.43;;;;;;;1.46;100.00;101837.25;5077376;28;20477;-72
2022/01/21 10:09:13;;;;;;;0.80;0.57;;;;;;;1.46;100.00;101827.31;5087614;28;20211;-71
2022/01/21 10:11:38;;;;;;;0.53;0.47;;;;;;;1.44;100.00;101834.75;5082170;28;20478;-72
2022/01/21 10:14:03;;;;;;;0.53;0.53;;;;;;;1.46;100.00;101845.34;5091287;28;20420;-71
2022/01/21 10:16:29;;;;;;;0.93;0.77;;;;;;;1.54;100.00;101849.63;5090790;28;20177;-71
2022/01/21 10:19:07;;;;;;;1.60;0.60;;;;;;;1.57;100.00;101839.22;5090630;28;20247;-71
2022/01/21 10:21:35;;;;;;;0.80;0.80;;;;;;;1.56;100.00;101850.22;5090845;28;20228;-72
2022/01/21 10:24:12;;;;;;;3.90;0.50;;;;;;;1.55;100.00;101841.31;5090769;28;20535;-71
2022/01/21 10:26:52;;;;;;;0.63;0.63;;;;;;;1.54;100.00;101845.06;5091494;28;20424;-72
2022/01/21 10:29:18;;;;;;;0.70;0.70;;;;;;;1.55;100.00;101837.81;5091631;28;20461;-73
2022/01/21 10:31:54;;;;;;;0.47;0.30;;;;;;;1.64;100.00;101848.09;5073171;28;20480;-72
2022/01/21 10:34:40;;;;;;;0.77;0.57;;;;;;;1.64;100.00;101850.81;5084043;28;20446;-71
2022/01/21 10:37:25;;;;;;;0.23;0.23;;;;;;;1.60;100.00;101836.13;5086531;28;20824;-71
2022/01/21 10:40:04;;;;;;;0.10;0.10;;;;;;;1.59;100.00;101842.56;5091721;28;20170;-71
2022/01/21 10:42:30;;;;;;;8.03;1.60;;;;;;;1.56;100.00;101845.66;5070021;28;20528;-71
2022/01/21 10:44:57;;;;;;;0.50;0.50;;;;;;;1.53;100.00;101829.94;5071130;28;20266;-71
2022/01/21 10:47:35;;;;;;;1.10;0.90;;;;;;;1.57;100.00;101839.22;5068573;28;20202;-72
2022/01/21 10:50:15;;;;;;;1.27;0.67;;;;;;;1.64;100.00;101845.41;5071137;28;20431;-72
2022/01/21 10:52:51;;;;;;;0.70;0.33;;;;;;;1.71;100.00;101848.06;5071031;28;20495;-72
2022/01/21 10:55:33;;;;;;;0.30;0.20;;;;;;;1.84;100.00;101871.38;5071277;28;20527;-72
2022/01/21 10:58:08;;;;;;;0.20;0.20;;;;;;;1.89;100.00;101869.72;5070918;28;20631;-72
2022/01/21 11:00:34;;;;;;;0.27;0.20;;;;;;;1.89;100.00;101868.88;5070986;28;20896;-72
2022/01/21 11:03:12;;;;;;;0.77;0.73;;;;;;;1.84;100.00;101864.13;5069485;28;20428;-72
2022/01/21 11:05:42;;;;;;;0.70;0.70;;;;;;;1.97;100.00;101876.69;5070829;28;20421;-72
2022/01/21 11:08:09;;;;;;;0.80;0.80;;;;;;;2.06;100.00;101870.81;5070896;28;20424;-72
2022/01/21 11:10:38;;;;;;;0.43;0.43;;;;;;;2.08;100.00;101865.19;5070707;28;20428;-72
2022/01/21 11:13:27;;;;;;;1.10;0.67;;;;;;;2.08;100.00;101873.28;5070811;28;20444;-72
2022/01/21 11:15:58;;;;;;;0.87;0.83;;;;;;;2.12;100.00;101866.41;5070633;28;20443;-72
2022/01/21 11:18:25;;;;;;;5.07;1.87;;;;;;;2.10;100.00;101871.19;5069495;28;20180;-72
2022/01/21 11:21:06;;;;;;;1.23;1.00;;;;;;;2.09;100.00;101864.16;5070677;28;20171;-72
2022/01/21 11:23:34;;;;;;;2.77;0.90;;;;;;;2.12;100.00;101877.19;5069407;28;20634;-72
2022/01/21 11:26:03;;;;;;;1.67;1.43;;;;;;;2.20;100.00;101886.88;5069184;28;20179;-72
2022/01/21 11:28:45;;;;;;;0.83;0.83;;;;;;;2.22;100.00;101887.47;5070673;28;20179;-72
2022/01/21 11:31:11;;;;;;;1.03;0.47;;;;;;;2.22;100.00;101887.47;5067648;28;20984;-72
2022/01/21 11:33:37;;;;;;;1.53;0.77;;;;;;;2.19;100.00;101869.88;5070778;28;20189;-72
2022/01/21 11:36:04;;;;;;;0.93;0.93;;;;;;;2.16;100.00;101891.03;5068627;28;20175;-73
2022/01/21 11:38:33;;;;;;;2.63;1.07;;;;;;;2.12;100.00;101887.13;5068582;28;20276;-72
2022/01/21 11:40:59;;;;;;;1.20;0.83;;;;;;;2.21;100.00;101875.88;5068914;28;20458;-72
2022/01/21 11:43:27;;;;;;;0.50;0.50;;;;;;;2.26;100.00;101870.63;5070089;28;20921;-72
2022/01/21 11:50:54;;;;;;;2.90;1.00;;;;;;;2.30;100.00;101871.00;5070147;28;21021;-72
2022/01/21 11:53:52;;;;;;;2.40;0.70;;;;;;;2.27;100.00;101866.88;5068778;28;20433;-72
2022/01/21 11:56:46;;;;;;;0.27;0.27;;;;;;;2.27;100.00;101874.97;5068403;28;20573;-73
2022/01/21 11:59:11;;;;;;;0.20;0.20;;;;;;;2.28;100.00;101873.09;5074643;28;20407;-73
2022/01/21 12:01:48;;;;;;;8.57;0.63;;;;;;;2.25;100.00;101870.84;5073967;28;20174;-73
2022/01/21 12:04:37;;;;;;;0.60;0.40;;;;;;;2.23;100.00;101873.78;5072555;28;20170;-73
2022/01/21 12:07:03;;;;;;;1.13;0.70;;;;;;;2.22;100.00;101855.13;5067819;28;20862;-73
2022/01/21 12:09:58;;;;;;;3.53;1.10;;;;;;;2.25;100.00;101860.06;5072284;28;20424;-72
2022/01/21 12:12:44;;;;;;;0.40;0.40;;;;;;;2.26;100.00;101865.25;5073168;28;20237;-73
2022/01/21 12:15:11;;;;;;;0.40;0.27;;;;;;;2.25;100.00;101860.91;5072366;28;20670;-72
2022/01/21 12:17:44;;;;;;;3.87;0.80;;;;;;;2.24;100.00;101863.81;5073740;28;20435;-72